sensor_id;sensor_type;location;lat;lon;timestamp;P1;durP1;ratioP1;P2;durP2;ratioP2
23676;SDS011;31493;49.058;12.190;2023-06-26T00:00:11;6.60;;;5.00;;
23676;SDS011;31493;49.058;12.190;2023-06-26T00:02:39;7.30;;;4.70;;
23676;SDS011;31493;49.058;12.190;2023-06-26T00:05:06;5.27;;;4.67;;
23676;SDS011;31493;49.058;12.190;2023-06-26T00:07:34;6.90;;;5.20;;
23676;SDS011;31493;49.058;12.190;2023-06-26T00:10:01;5.60;;;4.93;;
23676;SDS011;31493;49.058;12.190;2023-06-26T00:12:30;6.25;;;5.03;;
23676;SDS011;31493;49.058;12.190;2023-06-26T00:14:59;6.15;;;5.28;;
23676;SDS011;31493;49.058;12.190;2023-06-26T00:17:26;5.55;;;5.05;;
23676;SDS011;31493;49.058;12.190;2023-06-26T00:19:53;7.50;;;5.20;;
23676;SDS011;31493;49.058;12.190;2023-06-26T00:22:20;5.88;;;5.10;;
23676;SDS011;31493;49.058;12.190;2023-06-26T00:24:48;6.55;;;5.05;;
23676;SDS011;31493;49.058;12.190;2023-06-26T00:27:15;5.45;;;4.93;;
23676;SDS011;31493;49.058;12.190;2023-06-26T00:29:42;8.52;;;5.25;;
23676;SDS011;31493;49.058;12.190;2023-06-26T00:32:10;7.93;;;5.55;;
23676;SDS011;31493;49.058;12.190;2023-06-26T00:34:37;9.77;;;5.13;;
23676;SDS011;31493;49.058;12.190;2023-06-26T00:37:04;6.20;;;5.60;;
23676;SDS011;31493;49.058;12.190;2023-06-26T00:39:31;6.22;;;5.10;;
23676;SDS011;31493;49.058;12.190;2023-06-26T00:41:59;11.15;;;5.50;;
23676;SDS011;31493;49.058;12.190;2023-06-26T00:44:26;7.10;;;5.47;;
23676;SDS011;31493;49.058;12.190;2023-06-26T00:46:53;5.97;;;5.38;;
23676;SDS011;31493;49.058;12.190;2023-06-26T00:49:21;6.18;;;5.50;;
23676;SDS011;31493;49.058;12.190;2023-06-26T00:51:48;6.45;;;5.65;;
23676;SDS011;31493;49.058;12.190;2023-06-26T00:54:16;6.40;;;5.20;;
23676;SDS011;31493;49.058;12.190;2023-06-26T00:56:45;6.30;;;5.20;;
23676;SDS011;31493;49.058;12.190;2023-06-26T00:59:13;7.27;;;5.70;;
23676;SDS011;31493;49.058;12.190;2023-06-26T01:01:40;9.18;;;5.82;;
23676;SDS011;31493;49.058;12.190;2023-06-26T01:04:07;7.47;;;5.50;;
23676;SDS011;31493;49.058;12.190;2023-06-26T01:06:44;6.50;;;5.80;;
23676;SDS011;31493;49.058;12.190;2023-06-26T01:09:15;6.88;;;5.45;;
23676;SDS011;31493;49.058;12.190;2023-06-26T01:11:43;6.40;;;5.60;;
23676;SDS011;31493;49.058;12.190;2023-06-26T01:14:10;8.63;;;5.70;;
23676;SDS011;31493;49.058;12.190;2023-06-26T01:16:37;8.48;;;5.70;;
23676;SDS011;31493;49.058;12.190;2023-06-26T01:19:07;9.47;;;5.60;;
23676;SDS011;31493;49.058;12.190;2023-06-26T01:21:38;7.47;;;6.07;;
23676;SDS011;31493;49.058;12.190;2023-06-26T01:24:12;6.20;;;5.30;;
23676;SDS011;31493;49.058;12.190;2023-06-26T01:26:47;8.75;;;5.57;;
23676;SDS011;31493;49.058;12.190;2023-06-26T01:29:16;6.93;;;5.50;;
23676;SDS011;31493;49.058;12.190;2023-06-26T01:34:14;5.75;;;5.07;;
23676;SDS011;31493;49.058;12.190;2023-06-26T01:36:42;5.97;;;5.38;;
23676;SDS011;31493;49.058;12.190;2023-06-26T01:39:10;5.82;;;5.22;;
23676;SDS011;31493;49.058;12.190;2023-06-26T01:41:37;6.53;;;5.82;;
23676;SDS011;31493;49.058;12.190;2023-06-26T01:44:09;9.70;;;5.55;;
23676;SDS011;31493;49.058;12.190;2023-06-26T01:46:42;8.48;;;5.88;;
23676;SDS011;31493;49.058;12.190;2023-06-26T01:49:18;8.20;;;5.63;;
23676;SDS011;31493;49.058;12.190;2023-06-26T01:51:51;6.93;;;5.78;;
23676;SDS011;31493;49.058;12.190;2023-06-26T01:54:25;7.20;;;5.75;;
23676;SDS011;31493;49.058;12.190;2023-06-26T01:56:56;8.68;;;5.80;;
23676;SDS011;31493;49.058;12.190;2023-06-26T01:59:26;7.93;;;5.95;;
23676;SDS011;31493;49.058;12.190;2023-06-26T02:01:58;7.57;;;5.53;;
23676;SDS011;31493;49.058;12.190;2023-06-26T02:04:27;6.93;;;5.72;;
23676;SDS011;31493;49.058;12.190;2023-06-26T02:06:54;9.63;;;5.72;;
23676;SDS011;31493;49.058;12.190;2023-06-26T02:09:21;6.85;;;5.45;;
23676;SDS011;31493;49.058;12.190;2023-06-26T02:11:48;6.57;;;5.72;;
23676;SDS011;31493;49.058;12.190;2023-06-26T02:14:15;8.00;;;5.63;;
23676;SDS011;31493;49.058;12.190;2023-06-26T02:16:44;7.70;;;5.85;;
23676;SDS011;31493;49.058;12.190;2023-06-26T02:19:11;7.00;;;5.72;;
23676;SDS011;31493;49.058;12.190;2023-06-26T02:21:37;7.45;;;6.00;;
23676;SDS011;31493;49.058;12.190;2023-06-26T02:24:05;7.97;;;5.43;;
23676;SDS011;31493;49.058;12.190;2023-06-26T02:26:32;7.57;;;5.72;;
23676;SDS011;31493;49.058;12.190;2023-06-26T02:28:59;8.82;;;6.55;;
23676;SDS011;31493;49.058;12.190;2023-06-26T02:31:26;6.70;;;6.00;;
23676;SDS011;31493;49.058;12.190;2023-06-26T02:33:54;6.07;;;5.47;;
23676;SDS011;31493;49.058;12.190;2023-06-26T02:36:21;7.80;;;5.90;;
23676;SDS011;31493;49.058;12.190;2023-06-26T02:38:48;7.40;;;5.55;;
23676;SDS011;31493;49.058;12.190;2023-06-26T02:41:15;7.20;;;5.75;;
23676;SDS011;31493;49.058;12.190;2023-06-26T02:43:42;9.02;;;5.72;;
23676;SDS011;31493;49.058;12.190;2023-06-26T02:46:09;11.35;;;6.13;;
23676;SDS011;31493;49.058;12.190;2023-06-26T02:48:36;7.85;;;6.22;;
23676;SDS011;31493;49.058;12.190;2023-06-26T02:51:05;6.72;;;6.03;;
23676;SDS011;31493;49.058;12.190;2023-06-26T02:53:33;6.45;;;5.60;;
23676;SDS011;31493;49.058;12.190;2023-06-26T02:56:00;10.45;;;6.45;;
23676;SDS011;31493;49.058;12.190;2023-06-26T02:58:27;8.13;;;5.57;;
23676;SDS011;31493;49.058;12.190;2023-06-26T03:00:55;9.32;;;5.93;;
23676;SDS011;31493;49.058;12.190;2023-06-26T03:03:22;7.53;;;5.95;;
23676;SDS011;31493;49.058;12.190;2023-06-26T03:05:49;8.35;;;6.18;;
23676;SDS011;31493;49.058;12.190;2023-06-26T03:08:17;7.32;;;6.18;;
23676;SDS011;31493;49.058;12.190;2023-06-26T03:13:11;6.95;;;6.25;;
23676;SDS011;31493;49.058;12.190;2023-06-26T03:15:38;8.45;;;6.43;;
23676;SDS011;31493;49.058;12.190;2023-06-26T03:18:05;7.75;;;6.32;;
23676;SDS011;31493;49.058;12.190;2023-06-26T03:20:32;6.55;;;5.95;;
23676;SDS011;31493;49.058;12.190;2023-06-26T03:22:59;7.75;;;5.72;;
23676;SDS011;31493;49.058;12.190;2023-06-26T03:25:27;8.10;;;6.32;;
23676;SDS011;31493;49.058;12.190;2023-06-26T03:27:54;9.38;;;6.50;;
23676;SDS011;31493;49.058;12.190;2023-06-26T03:30:21;10.32;;;6.40;;
23676;SDS011;31493;49.058;12.190;2023-06-26T03:32:48;8.65;;;6.20;;
23676;SDS011;31493;49.058;12.190;2023-06-26T03:35:15;9.82;;;6.78;;
23676;SDS011;31493;49.058;12.190;2023-06-26T03:37:42;8.30;;;6.13;;
23676;SDS011;31493;49.058;12.190;2023-06-26T03:40:10;9.25;;;6.40;;
23676;SDS011;31493;49.058;12.190;2023-06-26T03:42:38;8.45;;;6.63;;
23676;SDS011;31493;49.058;12.190;2023-06-26T03:45:06;7.90;;;6.45;;
23676;SDS011;31493;49.058;12.190;2023-06-26T03:47:33;7.03;;;6.30;;
23676;SDS011;31493;49.058;12.190;2023-06-26T03:50:00;8.55;;;6.72;;
23676;SDS011;31493;49.058;12.190;2023-06-26T03:52:27;7.63;;;6.30;;
23676;SDS011;31493;49.058;12.190;2023-06-26T03:54:56;8.82;;;6.70;;
23676;SDS011;31493;49.058;12.190;2023-06-26T03:57:23;11.18;;;7.00;;
23676;SDS011;31493;49.058;12.190;2023-06-26T03:59:52;8.75;;;6.55;;
23676;SDS011;31493;49.058;12.190;2023-06-26T04:02:19;8.65;;;6.95;;
23676;SDS011;31493;49.058;12.190;2023-06-26T04:04:46;8.60;;;6.75;;
23676;SDS011;31493;49.058;12.190;2023-06-26T04:07:13;7.85;;;6.65;;
23676;SDS011;31493;49.058;12.190;2023-06-26T04:09:40;9.65;;;6.88;;
23676;SDS011;31493;49.058;12.190;2023-06-26T04:12:07;9.13;;;6.70;;
23676;SDS011;31493;49.058;12.190;2023-06-26T04:14:34;10.02;;;7.32;;
23676;SDS011;31493;49.058;12.190;2023-06-26T04:17:03;7.88;;;6.82;;
23676;SDS011;31493;49.058;12.190;2023-06-26T04:19:30;10.18;;;6.85;;
23676;SDS011;31493;49.058;12.190;2023-06-26T04:21:57;7.47;;;6.68;;
23676;SDS011;31493;49.058;12.190;2023-06-26T04:24:24;9.80;;;7.07;;
23676;SDS011;31493;49.058;12.190;2023-06-26T04:26:51;7.43;;;6.57;;
23676;SDS011;31493;49.058;12.190;2023-06-26T04:29:18;9.10;;;6.60;;
23676;SDS011;31493;49.058;12.190;2023-06-26T04:31:46;7.97;;;6.67;;
23676;SDS011;31493;49.058;12.190;2023-06-26T04:34:15;8.32;;;6.70;;
23676;SDS011;31493;49.058;12.190;2023-06-26T04:36:42;8.45;;;7.07;;
23676;SDS011;31493;49.058;12.190;2023-06-26T04:39:13;8.15;;;7.18;;
23676;SDS011;31493;49.058;12.190;2023-06-26T04:41:41;9.88;;;6.88;;
23676;SDS011;31493;49.058;12.190;2023-06-26T04:44:09;7.60;;;6.78;;
23676;SDS011;31493;49.058;12.190;2023-06-26T04:46:36;9.70;;;7.07;;
23676;SDS011;31493;49.058;12.190;2023-06-26T04:49:06;9.82;;;7.25;;
23676;SDS011;31493;49.058;12.190;2023-06-26T04:51:35;7.72;;;6.93;;
23676;SDS011;31493;49.058;12.190;2023-06-26T04:54:06;8.25;;;7.15;;
23676;SDS011;31493;49.058;12.190;2023-06-26T04:56:33;8.45;;;7.25;;
23676;SDS011;31493;49.058;12.190;2023-06-26T04:59:01;8.32;;;6.90;;
23676;SDS011;31493;49.058;12.190;2023-06-26T05:01:28;8.10;;;7.32;;
23676;SDS011;31493;49.058;12.190;2023-06-26T05:03:57;8.10;;;7.20;;
23676;SDS011;31493;49.058;12.190;2023-06-26T05:06:24;8.88;;;7.38;;
23676;SDS011;31493;49.058;12.190;2023-06-26T05:08:53;7.10;;;6.40;;
23676;SDS011;31493;49.058;12.190;2023-06-26T05:11:20;8.30;;;6.97;;
23676;SDS011;31493;49.058;12.190;2023-06-26T05:13:47;7.28;;;6.50;;
23676;SDS011;31493;49.058;12.190;2023-06-26T05:16:14;7.38;;;6.60;;
23676;SDS011;31493;49.058;12.190;2023-06-26T05:18:41;8.43;;;6.57;;
23676;SDS011;31493;49.058;12.190;2023-06-26T05:21:08;9.93;;;6.80;;
23676;SDS011;31493;49.058;12.190;2023-06-26T05:23:36;7.82;;;6.97;;
23676;SDS011;31493;49.058;12.190;2023-06-26T05:26:05;8.65;;;7.07;;
23676;SDS011;31493;49.058;12.190;2023-06-26T05:28:32;9.23;;;6.63;;
23676;SDS011;31493;49.058;12.190;2023-06-26T05:31:01;9.75;;;7.15;;
23676;SDS011;31493;49.058;12.190;2023-06-26T05:33:30;7.53;;;6.55;;
23676;SDS011;31493;49.058;12.190;2023-06-26T05:36:00;7.70;;;6.90;;
23676;SDS011;31493;49.058;12.190;2023-06-26T05:38:30;8.15;;;7.07;;
23676;SDS011;31493;49.058;12.190;2023-06-26T05:40:58;8.90;;;7.00;;
23676;SDS011;31493;49.058;12.190;2023-06-26T05:43:26;9.52;;;7.25;;
23676;SDS011;31493;49.058;12.190;2023-06-26T05:45:53;8.40;;;6.93;;
23676;SDS011;31493;49.058;12.190;2023-06-26T05:48:20;7.80;;;7.00;;
23676;SDS011;31493;49.058;12.190;2023-06-26T05:50:48;7.53;;;6.60;;
23676;SDS011;31493;49.058;12.190;2023-06-26T05:53:15;9.82;;;7.18;;
23676;SDS011;31493;49.058;12.190;2023-06-26T05:55:43;8.45;;;7.22;;
23676;SDS011;31493;49.058;12.190;2023-06-26T05:58:10;8.23;;;6.88;;
23676;SDS011;31493;49.058;12.190;2023-06-26T06:00:40;12.65;;;6.97;;
23676;SDS011;31493;49.058;12.190;2023-06-26T06:03:09;7.90;;;6.47;;
23676;SDS011;31493;49.058;12.190;2023-06-26T06:05:36;8.82;;;7.00;;
23676;SDS011;31493;49.058;12.190;2023-06-26T06:08:03;10.30;;;7.72;;
23676;SDS011;31493;49.058;12.190;2023-06-26T06:10:30;8.75;;;6.93;;
23676;SDS011;31493;49.058;12.190;2023-06-26T06:12:57;8.35;;;6.38;;
23676;SDS011;31493;49.058;12.190;2023-06-26T06:15:24;11.23;;;6.90;;
23676;SDS011;31493;49.058;12.190;2023-06-26T06:17:53;12.13;;;7.03;;
23676;SDS011;31493;49.058;12.190;2023-06-26T06:20:20;8.55;;;6.68;;
23676;SDS011;31493;49.058;12.190;2023-06-26T06:22:47;8.10;;;6.95;;
23676;SDS011;31493;49.058;12.190;2023-06-26T06:25:14;7.63;;;6.68;;
23676;SDS011;31493;49.058;12.190;2023-06-26T06:27:41;8.25;;;7.07;;
23676;SDS011;31493;49.058;12.190;2023-06-26T06:30:09;8.45;;;6.80;;
23676;SDS011;31493;49.058;12.190;2023-06-26T06:32:37;8.88;;;6.55;;
23676;SDS011;31493;49.058;12.190;2023-06-26T06:35:06;9.68;;;7.13;;
23676;SDS011;31493;49.058;12.190;2023-06-26T06:37:35;8.07;;;7.28;;
23676;SDS011;31493;49.058;12.190;2023-06-26T06:40:03;8.75;;;7.38;;
23676;SDS011;31493;49.058;12.190;2023-06-26T06:42:32;8.10;;;7.15;;
23676;SDS011;31493;49.058;12.190;2023-06-26T06:44:59;10.23;;;6.88;;
23676;SDS011;31493;49.058;12.190;2023-06-26T06:47:28;8.52;;;7.03;;
23676;SDS011;31493;49.058;12.190;2023-06-26T06:49:55;9.23;;;7.85;;
23676;SDS011;31493;49.058;12.190;2023-06-26T06:52:23;7.68;;;6.88;;
23676;SDS011;31493;49.058;12.190;2023-06-26T06:54:50;9.98;;;7.60;;
23676;SDS011;31493;49.058;12.190;2023-06-26T06:57:18;9.48;;;7.47;;
23676;SDS011;31493;49.058;12.190;2023-06-26T06:59:45;9.40;;;7.25;;
23676;SDS011;31493;49.058;12.190;2023-06-26T07:02:12;8.65;;;7.15;;
23676;SDS011;31493;49.058;12.190;2023-06-26T07:04:40;11.95;;;7.25;;
23676;SDS011;31493;49.058;12.190;2023-06-26T07:07:07;9.77;;;7.07;;
23676;SDS011;31493;49.058;12.190;2023-06-26T07:09:35;8.52;;;7.10;;
23676;SDS011;31493;49.058;12.190;2023-06-26T07:12:02;9.38;;;6.70;;
23676;SDS011;31493;49.058;12.190;2023-06-26T07:14:30;8.68;;;6.97;;
23676;SDS011;31493;49.058;12.190;2023-06-26T07:16:57;8.60;;;7.50;;
23676;SDS011;31493;49.058;12.190;2023-06-26T07:19:24;7.72;;;6.93;;
23676;SDS011;31493;49.058;12.190;2023-06-26T07:21:51;7.45;;;6.65;;
23676;SDS011;31493;49.058;12.190;2023-06-26T07:24:18;8.02;;;6.72;;
23676;SDS011;31493;49.058;12.190;2023-06-26T07:26:47;8.90;;;7.00;;
23676;SDS011;31493;49.058;12.190;2023-06-26T07:29:14;7.20;;;6.50;;
23676;SDS011;31493;49.058;12.190;2023-06-26T07:31:41;7.63;;;6.80;;
23676;SDS011;31493;49.058;12.190;2023-06-26T07:34:08;9.15;;;6.75;;
23676;SDS011;31493;49.058;12.190;2023-06-26T07:36:35;9.77;;;6.70;;
23676;SDS011;31493;49.058;12.190;2023-06-26T07:39:02;9.95;;;7.13;;
23676;SDS011;31493;49.058;12.190;2023-06-26T07:41:29;9.82;;;7.03;;
23676;SDS011;31493;49.058;12.190;2023-06-26T07:43:58;9.05;;;7.20;;
23676;SDS011;31493;49.058;12.190;2023-06-26T07:46:25;7.82;;;7.10;;
23676;SDS011;31493;49.058;12.190;2023-06-26T07:48:53;8.73;;;6.95;;
23676;SDS011;31493;49.058;12.190;2023-06-26T07:51:20;8.27;;;7.47;;
23676;SDS011;31493;49.058;12.190;2023-06-26T07:53:47;9.30;;;7.22;;
23676;SDS011;31493;49.058;12.190;2023-06-26T07:56:14;10.95;;;7.57;;
23676;SDS011;31493;49.058;12.190;2023-06-26T07:58:41;9.40;;;8.32;;
23676;SDS011;31493;49.058;12.190;2023-06-26T08:01:09;8.82;;;7.82;;
23676;SDS011;31493;49.058;12.190;2023-06-26T08:03:36;13.88;;;7.28;;
23676;SDS011;31493;49.058;12.190;2023-06-26T08:06:03;9.63;;;7.32;;
23676;SDS011;31493;49.058;12.190;2023-06-26T08:08:31;9.52;;;6.85;;
23676;SDS011;31493;49.058;12.190;2023-06-26T08:10:58;10.70;;;7.20;;
23676;SDS011;31493;49.058;12.190;2023-06-26T08:13:25;11.05;;;7.47;;
23676;SDS011;31493;49.058;12.190;2023-06-26T08:15:52;11.73;;;7.80;;
23676;SDS011;31493;49.058;12.190;2023-06-26T08:18:20;10.95;;;7.72;;
23676;SDS011;31493;49.058;12.190;2023-06-26T08:20:47;8.85;;;7.45;;
23676;SDS011;31493;49.058;12.190;2023-06-26T08:23:14;8.75;;;7.78;;
23676;SDS011;31493;49.058;12.190;2023-06-26T08:25:41;13.07;;;7.88;;
23676;SDS011;31493;49.058;12.190;2023-06-26T08:28:08;7.97;;;7.18;;
23676;SDS011;31493;49.058;12.190;2023-06-26T08:30:35;10.90;;;7.47;;
23676;SDS011;31493;49.058;12.190;2023-06-26T08:33:02;14.73;;;6.97;;
23676;SDS011;31493;49.058;12.190;2023-06-26T08:35:31;8.30;;;6.65;;
23676;SDS011;31493;49.058;12.190;2023-06-26T08:37:58;12.48;;;7.82;;
23676;SDS011;31493;49.058;12.190;2023-06-26T08:40:25;10.35;;;7.53;;
23676;SDS011;31493;49.058;12.190;2023-06-26T08:42:53;8.18;;;7.38;;
23676;SDS011;31493;49.058;12.190;2023-06-26T08:45:20;9.73;;;7.10;;
23676;SDS011;31493;49.058;12.190;2023-06-26T08:47:47;8.70;;;7.25;;
23676;SDS011;31493;49.058;12.190;2023-06-26T08:50:18;8.38;;;7.03;;
23676;SDS011;31493;49.058;12.190;2023-06-26T08:52:51;8.20;;;6.82;;
23676;SDS011;31493;49.058;12.190;2023-06-26T08:55:22;10.98;;;6.88;;
23676;SDS011;31493;49.058;12.190;2023-06-26T08:57:50;7.65;;;6.85;;
23676;SDS011;31493;49.058;12.190;2023-06-26T09:00:19;10.07;;;7.40;;
23676;SDS011;31493;49.058;12.190;2023-06-26T09:02:46;11.77;;;7.10;;
23676;SDS011;31493;49.058;12.190;2023-06-26T09:05:13;10.00;;;7.55;;
23676;SDS011;31493;49.058;12.190;2023-06-26T09:07:40;8.73;;;7.40;;
23676;SDS011;31493;49.058;12.190;2023-06-26T09:10:09;8.48;;;7.45;;
23676;SDS011;31493;49.058;12.190;2023-06-26T09:12:36;12.27;;;7.60;;
23676;SDS011;31493;49.058;12.190;2023-06-26T09:15:04;9.63;;;6.90;;
23676;SDS011;31493;49.058;12.190;2023-06-26T09:17:33;9.95;;;6.95;;
23676;SDS011;31493;49.058;12.190;2023-06-26T09:20:06;8.90;;;6.63;;
23676;SDS011;31493;49.058;12.190;2023-06-26T09:22:36;11.07;;;7.32;;
23676;SDS011;31493;49.058;12.190;2023-06-26T09:25:05;7.80;;;7.00;;
23676;SDS011;31493;49.058;12.190;2023-06-26T09:27:34;9.32;;;7.55;;
23676;SDS011;31493;49.058;12.190;2023-06-26T09:30:02;8.20;;;6.47;;
23676;SDS011;31493;49.058;12.190;2023-06-26T09:32:29;12.82;;;7.30;;
23676;SDS011;31493;49.058;12.190;2023-06-26T09:34:56;9.23;;;6.90;;
23676;SDS011;31493;49.058;12.190;2023-06-26T09:37:25;8.00;;;7.07;;
23676;SDS011;31493;49.058;12.190;2023-06-26T09:39:52;9.15;;;7.65;;
23676;SDS011;31493;49.058;12.190;2023-06-26T09:42:19;9.18;;;6.90;;
23676;SDS011;31493;49.058;12.190;2023-06-26T09:44:48;10.03;;;7.03;;
23676;SDS011;31493;49.058;12.190;2023-06-26T09:47:16;7.75;;;6.95;;
23676;SDS011;31493;49.058;12.190;2023-06-26T09:49:45;8.40;;;7.40;;
23676;SDS011;31493;49.058;12.190;2023-06-26T09:52:13;10.40;;;6.95;;
23676;SDS011;31493;49.058;12.190;2023-06-26T09:54:42;10.77;;;7.20;;
23676;SDS011;31493;49.058;12.190;2023-06-26T09:59:37;9.45;;;6.85;;
23676;SDS011;31493;49.058;12.190;2023-06-26T10:02:07;12.23;;;7.60;;
23676;SDS011;31493;49.058;12.190;2023-06-26T10:04:34;10.70;;;7.78;;
23676;SDS011;31493;49.058;12.190;2023-06-26T10:07:02;7.97;;;6.97;;
23676;SDS011;31493;49.058;12.190;2023-06-26T10:09:32;10.32;;;7.20;;
23676;SDS011;31493;49.058;12.190;2023-06-26T10:12:05;8.10;;;7.18;;
23676;SDS011;31493;49.058;12.190;2023-06-26T10:14:37;8.90;;;7.00;;
23676;SDS011;31493;49.058;12.190;2023-06-26T10:17:08;7.88;;;7.05;;
23676;SDS011;31493;49.058;12.190;2023-06-26T10:19:39;8.30;;;6.95;;
23676;SDS011;31493;49.058;12.190;2023-06-26T10:22:10;8.43;;;7.00;;
23676;SDS011;31493;49.058;12.190;2023-06-26T10:24:41;8.15;;;6.68;;
23676;SDS011;31493;49.058;12.190;2023-06-26T10:27:13;8.25;;;6.85;;
23676;SDS011;31493;49.058;12.190;2023-06-26T10:29:42;9.95;;;7.10;;
23676;SDS011;31493;49.058;12.190;2023-06-26T10:34:39;7.72;;;6.90;;
23676;SDS011;31493;49.058;12.190;2023-06-26T10:37:06;7.88;;;7.07;;
23676;SDS011;31493;49.058;12.190;2023-06-26T10:39:45;7.55;;;6.72;;
23676;SDS011;31493;49.058;12.190;2023-06-26T10:42:14;11.13;;;7.22;;
23676;SDS011;31493;49.058;12.190;2023-06-26T10:44:42;8.18;;;6.78;;
23676;SDS011;31493;49.058;12.190;2023-06-26T10:47:10;8.77;;;6.85;;
23676;SDS011;31493;49.058;12.190;2023-06-26T10:49:40;9.00;;;7.20;;
23676;SDS011;31493;49.058;12.190;2023-06-26T10:52:13;7.47;;;6.50;;
23676;SDS011;31493;49.058;12.190;2023-06-26T10:54:40;11.63;;;7.10;;
23676;SDS011;31493;49.058;12.190;2023-06-26T10:57:08;8.75;;;7.03;;
23676;SDS011;31493;49.058;12.190;2023-06-26T10:59:38;8.30;;;7.22;;
23676;SDS011;31493;49.058;12.190;2023-06-26T11:02:06;8.73;;;7.00;;
23676;SDS011;31493;49.058;12.190;2023-06-26T11:04:38;10.02;;;6.78;;
23676;SDS011;31493;49.058;12.190;2023-06-26T11:07:15;11.48;;;6.60;;
23676;SDS011;31493;49.058;12.190;2023-06-26T11:09:54;12.02;;;6.78;;
23676;SDS011;31493;49.058;12.190;2023-06-26T11:12:36;7.40;;;6.53;;
23676;SDS011;31493;49.058;12.190;2023-06-26T11:15:06;7.45;;;6.60;;
23676;SDS011;31493;49.058;12.190;2023-06-26T11:17:34;7.50;;;6.72;;
23676;SDS011;31493;49.058;12.190;2023-06-26T11:20:03;7.03;;;6.35;;
23676;SDS011;31493;49.058;12.190;2023-06-26T11:22:34;7.88;;;7.07;;
23676;SDS011;31493;49.058;12.190;2023-06-26T11:25:04;7.55;;;6.75;;
23676;SDS011;31493;49.058;12.190;2023-06-26T11:27:32;7.88;;;6.97;;
23676;SDS011;31493;49.058;12.190;2023-06-26T11:30:04;8.65;;;6.75;;
23676;SDS011;31493;49.058;12.190;2023-06-26T11:32:32;15.25;;;6.28;;
23676;SDS011;31493;49.058;12.190;2023-06-26T11:34:59;8.32;;;6.35;;
23676;SDS011;31493;49.058;12.190;2023-06-26T11:37:28;8.30;;;6.78;;
23676;SDS011;31493;49.058;12.190;2023-06-26T11:39:55;10.70;;;6.15;;
23676;SDS011;31493;49.058;12.190;2023-06-26T11:42:22;8.68;;;6.82;;
23676;SDS011;31493;49.058;12.190;2023-06-26T11:44:50;8.52;;;6.15;;
23676;SDS011;31493;49.058;12.190;2023-06-26T11:47:20;9.65;;;6.90;;
23676;SDS011;31493;49.058;12.190;2023-06-26T11:52:16;8.40;;;6.65;;
23676;SDS011;31493;49.058;12.190;2023-06-26T11:54:44;6.70;;;6.10;;
23676;SDS011;31493;49.058;12.190;2023-06-26T11:57:13;10.25;;;6.38;;
23676;SDS011;31493;49.058;12.190;2023-06-26T11:59:41;7.95;;;6.35;;
23676;SDS011;31493;49.058;12.190;2023-06-26T12:02:09;6.65;;;5.95;;
23676;SDS011;31493;49.058;12.190;2023-06-26T12:04:37;6.80;;;5.93;;
23676;SDS011;31493;49.058;12.190;2023-06-26T12:07:07;8.60;;;5.97;;
23676;SDS011;31493;49.058;12.190;2023-06-26T12:09:37;7.38;;;6.35;;
23676;SDS011;31493;49.058;12.190;2023-06-26T12:12:08;6.90;;;6.20;;
23676;SDS011;31493;49.058;12.190;2023-06-26T12:14:36;7.07;;;6.25;;
23676;SDS011;31493;49.058;12.190;2023-06-26T12:17:04;6.93;;;6.22;;
23676;SDS011;31493;49.058;12.190;2023-06-26T12:19:34;7.07;;;6.38;;
23676;SDS011;31493;49.058;12.190;2023-06-26T12:22:05;8.45;;;6.57;;
23676;SDS011;31493;49.058;12.190;2023-06-26T12:24:34;8.23;;;5.70;;
23676;SDS011;31493;49.058;12.190;2023-06-26T12:27:03;10.35;;;6.53;;
23676;SDS011;31493;49.058;12.190;2023-06-26T12:29:36;8.05;;;6.63;;
23676;SDS011;31493;49.058;12.190;2023-06-26T12:32:08;8.70;;;6.57;;
23676;SDS011;31493;49.058;12.190;2023-06-26T12:34:37;7.72;;;6.65;;
23676;SDS011;31493;49.058;12.190;2023-06-26T12:39:44;9.13;;;6.80;;
23676;SDS011;31493;49.058;12.190;2023-06-26T12:42:14;10.93;;;6.63;;
23676;SDS011;31493;49.058;12.190;2023-06-26T12:44:42;9.57;;;6.03;;
23676;SDS011;31493;49.058;12.190;2023-06-26T12:47:09;8.85;;;6.50;;
23676;SDS011;31493;49.058;12.190;2023-06-26T12:49:39;8.20;;;6.30;;
23676;SDS011;31493;49.058;12.190;2023-06-26T12:52:07;6.95;;;6.05;;
23676;SDS011;31493;49.058;12.190;2023-06-26T12:54:35;6.45;;;5.63;;
23676;SDS011;31493;49.058;12.190;2023-06-26T12:59:32;9.38;;;5.47;;
23676;SDS011;31493;49.058;12.190;2023-06-26T13:02:00;6.78;;;5.57;;
23676;SDS011;31493;49.058;12.190;2023-06-26T13:04:27;10.57;;;4.90;;
23676;SDS011;31493;49.058;12.190;2023-06-26T13:06:54;6.53;;;5.40;;
23676;SDS011;31493;49.058;12.190;2023-06-26T13:09:22;7.10;;;5.60;;
23676;SDS011;31493;49.058;12.190;2023-06-26T13:11:50;8.27;;;5.40;;
23676;SDS011;31493;49.058;12.190;2023-06-26T13:14:17;7.10;;;5.65;;
23676;SDS011;31493;49.058;12.190;2023-06-26T13:16:46;6.57;;;5.90;;
23676;SDS011;31493;49.058;12.190;2023-06-26T13:21:40;7.70;;;5.53;;
23676;SDS011;31493;49.058;12.190;2023-06-26T13:24:07;7.13;;;5.20;;
23676;SDS011;31493;49.058;12.190;2023-06-26T13:26:34;6.60;;;5.47;;
23676;SDS011;31493;49.058;12.190;2023-06-26T13:29:02;6.78;;;5.82;;
23676;SDS011;31493;49.058;12.190;2023-06-26T13:31:29;7.97;;;5.60;;
23676;SDS011;31493;49.058;12.190;2023-06-26T13:33:58;6.95;;;5.30;;
23676;SDS011;31493;49.058;12.190;2023-06-26T13:36:25;5.90;;;5.30;;
23676;SDS011;31493;49.058;12.190;2023-06-26T13:38:53;7.32;;;5.50;;
23676;SDS011;31493;49.058;12.190;2023-06-26T13:41:22;5.95;;;5.20;;
23676;SDS011;31493;49.058;12.190;2023-06-26T13:43:49;7.68;;;5.15;;
23676;SDS011;31493;49.058;12.190;2023-06-26T13:46:16;6.50;;;5.20;;
23676;SDS011;31493;49.058;12.190;2023-06-26T13:48:43;5.75;;;5.15;;
23676;SDS011;31493;49.058;12.190;2023-06-26T13:51:12;7.53;;;5.90;;
23676;SDS011;31493;49.058;12.190;2023-06-26T13:53:39;5.72;;;4.78;;
23676;SDS011;31493;49.058;12.190;2023-06-26T13:56:06;6.38;;;5.35;;
23676;SDS011;31493;49.058;12.190;2023-06-26T13:58:34;9.05;;;5.15;;
23676;SDS011;31493;49.058;12.190;2023-06-26T14:01:04;5.82;;;4.93;;
23676;SDS011;31493;49.058;12.190;2023-06-26T14:03:31;7.80;;;5.07;;
23676;SDS011;31493;49.058;12.190;2023-06-26T14:05:58;7.35;;;5.53;;
23676;SDS011;31493;49.058;12.190;2023-06-26T14:08:26;5.95;;;5.38;;
23676;SDS011;31493;49.058;12.190;2023-06-26T14:13:20;7.35;;;5.22;;
23676;SDS011;31493;49.058;12.190;2023-06-26T14:15:47;6.05;;;5.25;;
23676;SDS011;31493;49.058;12.190;2023-06-26T14:18:14;5.88;;;5.20;;
23676;SDS011;31493;49.058;12.190;2023-06-26T14:20:43;5.97;;;5.10;;
23676;SDS011;31493;49.058;12.190;2023-06-26T14:23:10;9.23;;;5.32;;
23676;SDS011;31493;49.058;12.190;2023-06-26T14:25:38;7.93;;;5.20;;
23676;SDS011;31493;49.058;12.190;2023-06-26T14:28:05;8.25;;;4.90;;
23676;SDS011;31493;49.058;12.190;2023-06-26T14:30:32;5.45;;;4.72;;
23676;SDS011;31493;49.058;12.190;2023-06-26T14:33:00;5.43;;;4.93;;
23676;SDS011;31493;49.058;12.190;2023-06-26T14:35:27;7.43;;;4.80;;
23676;SDS011;31493;49.058;12.190;2023-06-26T14:37:54;5.55;;;4.95;;
23676;SDS011;31493;49.058;12.190;2023-06-26T14:40:20;5.28;;;4.78;;
23676;SDS011;31493;49.058;12.190;2023-06-26T14:42:49;5.20;;;4.70;;
23676;SDS011;31493;49.058;12.190;2023-06-26T14:45:16;8.15;;;5.03;;
23676;SDS011;31493;49.058;12.190;2023-06-26T14:47:43;8.35;;;5.40;;
23676;SDS011;31493;49.058;12.190;2023-06-26T14:50:10;5.53;;;4.55;;
23676;SDS011;31493;49.058;12.190;2023-06-26T14:52:37;9.38;;;5.05;;
23676;SDS011;31493;49.058;12.190;2023-06-26T14:55:04;5.40;;;4.88;;
23676;SDS011;31493;49.058;12.190;2023-06-26T14:57:32;7.10;;;4.70;;
23676;SDS011;31493;49.058;12.190;2023-06-26T15:00:00;6.80;;;5.28;;